createdAt,value
2023-01-24T00:01:19.302Z,6.60
2023-01-24T00:03:47.521Z,6.53
2023-01-24T00:06:15.510Z,6.63
2023-01-24T00:08:43.489Z,6.67
2023-01-24T00:11:13.276Z,6.27
2023-01-24T00:13:41.055Z,7.03
2023-01-24T00:16:30.017Z,6.30
2023-01-24T00:18:57.199Z,6.60
2023-01-24T00:21:25.788Z,6.70
2023-01-24T00:23:56.546Z,6.53
2023-01-24T00:26:25.838Z,6.47
2023-01-24T00:28:53.395Z,5.80
2023-01-24T00:31:20.839Z,6.17
2023-01-24T00:33:48.494Z,5.60
2023-01-24T00:36:15.755Z,6.00
2023-01-24T00:38:43.028Z,6.93
2023-01-24T00:41:10.405Z,5.90
2023-01-24T00:43:37.605Z,5.73
2023-01-24T00:46:10.328Z,6.10
2023-01-24T00:48:38.531Z,6.30
2023-01-24T00:51:06.488Z,6.30
2023-01-24T00:53:34.144Z,5.63
2023-01-24T00:56:01.451Z,5.83
2023-01-24T00:58:28.673Z,6.47
2023-01-24T01:00:57.563Z,5.80
2023-01-24T01:03:24.840Z,5.80
2023-01-24T01:06:08.814Z,5.83
2023-01-24T01:08:36.023Z,5.70
2023-01-24T01:11:03.552Z,6.70
2023-01-24T01:13:31.419Z,7.10
2023-01-24T01:16:04.864Z,6.50
2023-01-24T01:18:33.089Z,6.60
2023-01-24T01:21:00.533Z,6.57
2023-01-24T01:23:28.936Z,7.50
2023-01-24T01:26:01.747Z,6.67
2023-01-24T01:28:29.885Z,6.57
2023-01-24T01:30:57.309Z,6.47
2023-01-24T01:33:26.028Z,7.87
2023-01-24T01:35:53.369Z,8.47
2023-01-24T01:38:21.605Z,7.73
2023-01-24T01:40:48.751Z,8.60
2023-01-24T01:43:20.780Z,8.23
2023-01-24T01:45:53.566Z,9.00
2023-01-24T01:48:41.225Z,7.73
2023-01-24T01:51:28.271Z,7.80
2023-01-24T01:54:22.160Z,6.93
2023-01-24T01:56:52.784Z,7.73
2023-01-24T01:59:27.102Z,8.17
2023-01-24T02:01:56.518Z,7.90
2023-01-24T02:04:34.431Z,7.67
2023-01-24T02:07:42.775Z,7.40
2023-01-24T02:10:11.014Z,6.57
2023-01-24T02:12:45.494Z,6.97
2023-01-24T02:15:40.369Z,7.00
2023-01-24T02:18:10.433Z,7.53
2023-01-24T02:20:44.791Z,8.57
2023-01-24T02:23:52.211Z,7.63
2023-01-24T02:26:24.914Z,8.37
2023-01-24T02:29:05.036Z,7.97
2023-01-24T02:32:07.672Z,8.20
2023-01-24T02:34:35.227Z,8.00
2023-01-24T02:37:08.741Z,7.13
2023-01-24T02:39:54.806Z,7.53
2023-01-24T02:42:27.519Z,7.13
2023-01-24T02:45:12.113Z,6.80
2023-01-24T02:47:46.144Z,7.07
2023-01-24T02:50:13.349Z,7.17
2023-01-24T02:52:59.082Z,6.40
2023-01-24T02:55:26.621Z,7.40
2023-01-24T02:58:09.447Z,6.93
2023-01-24T03:00:43.391Z,7.77
2023-01-24T03:03:14.188Z,8.47
2023-01-24T03:05:47.638Z,8.17
2023-01-24T03:08:17.483Z,7.50
2023-01-24T03:10:47.667Z,8.43
2023-01-24T03:13:35.350Z,7.60
2023-01-24T03:16:22.540Z,7.20
2023-01-24T03:19:08.657Z,8.07
2023-01-24T03:21:55.278Z,7.90
2023-01-24T03:24:41.358Z,7.83
2023-01-24T03:27:28.742Z,8.00
2023-01-24T03:30:15.384Z,7.07
2023-01-24T03:33:01.559Z,7.30
2023-01-24T03:35:29.437Z,7.83
2023-01-24T03:38:14.932Z,8.10
2023-01-24T03:40:42.229Z,8.20
2023-01-24T03:43:09.504Z,8.53
2023-01-24T03:45:40.711Z,7.90
2023-01-24T03:48:15.245Z,9.53
2023-01-24T03:51:02.804Z,9.07
2023-01-24T03:53:35.497Z,9.07
2023-01-24T03:56:04.740Z,9.00
2023-01-24T03:58:40.562Z,9.50
2023-01-24T04:01:10.557Z,9.77
2023-01-24T04:03:55.512Z,9.97
2023-01-24T04:06:23.582Z,9.50
2023-01-24T04:08:51.915Z,10.00
2023-01-24T04:11:20.832Z,9.10
2023-01-24T04:13:52.811Z,9.07
2023-01-24T04:16:20.484Z,9.07
2023-01-24T04:19:20.235Z,9.63
2023-01-24T04:21:47.634Z,8.57
2023-01-24T04:24:14.876Z,8.57
2023-01-24T04:26:44.851Z,8.63
2023-01-24T04:29:18.176Z,9.53
2023-01-24T04:31:48.304Z,8.90
2023-01-24T04:34:34.088Z,8.70
2023-01-24T04:37:01.556Z,9.50
2023-01-24T04:39:29.774Z,8.73
2023-01-24T04:42:11.636Z,8.40
2023-01-24T04:44:40.561Z,9.40
2023-01-24T04:47:10.230Z,9.40
2023-01-24T04:49:37.513Z,10.03
2023-01-24T04:52:06.308Z,9.97
2023-01-24T04:54:46.111Z,9.20
2023-01-24T04:57:13.422Z,9.00
2023-01-24T04:59:42.949Z,9.37
2023-01-24T05:02:11.947Z,9.73
2023-01-24T05:04:43.368Z,9.47
2023-01-24T05:07:11.527Z,10.20
2023-01-24T05:09:40.171Z,8.77
2023-01-24T05:12:09.911Z,10.63
2023-01-24T05:14:37.191Z,9.63
2023-01-24T05:17:04.924Z,9.83
2023-01-24T05:19:34.935Z,9.17
2023-01-24T05:22:02.192Z,9.57
2023-01-24T05:24:35.222Z,10.27
2023-01-24T05:27:02.630Z,10.30
2023-01-24T05:29:31.919Z,9.23
2023-01-24T05:32:03.380Z,10.57
2023-01-24T05:34:30.695Z,10.33
2023-01-24T05:36:58.209Z,9.03
2023-01-24T05:39:26.178Z,10.60
2023-01-24T05:41:54.097Z,8.73
2023-01-24T05:44:23.988Z,9.83
2023-01-24T05:46:51.414Z,10.03
2023-01-24T05:49:27.436Z,8.67
2023-01-24T05:51:55.853Z,8.97
2023-01-24T05:54:40.432Z,8.50
2023-01-24T05:57:20.101Z,9.30
2023-01-24T06:00:10.016Z,9.50
2023-01-24T06:02:41.886Z,8.60
2023-01-24T06:05:11.166Z,9.33
2023-01-24T06:07:38.547Z,9.43
2023-01-24T06:10:06.327Z,11.63
2023-01-24T06:12:45.543Z,10.37
2023-01-24T06:15:13.941Z,9.53
2023-01-24T06:17:41.499Z,9.70
2023-01-24T06:20:12.534Z,8.97
2023-01-24T06:22:53.574Z,9.83
2023-01-24T06:25:27.226Z,10.10
2023-01-24T06:27:55.035Z,9.30
2023-01-24T06:30:22.879Z,10.10
2023-01-24T06:33:23.616Z,9.87
2023-01-24T06:36:05.480Z,10.67
2023-01-24T06:38:33.037Z,10.57
2023-01-24T06:41:02.973Z,10.07
2023-01-24T06:43:30.546Z,9.97
2023-01-24T06:45:58.047Z,9.53
2023-01-24T06:48:25.271Z,10.70
2023-01-24T06:50:52.569Z,9.93
2023-01-24T06:53:20.261Z,11.50
2023-01-24T06:55:47.612Z,34.20
2023-01-24T06:58:15.007Z,9.70
2023-01-24T07:00:42.196Z,10.27
2023-01-24T07:03:09.805Z,10.03
2023-01-24T07:05:40.314Z,10.93
2023-01-24T07:08:08.228Z,10.30
2023-01-24T07:10:35.809Z,10.33
2023-01-24T07:13:03.303Z,10.07
2023-01-24T07:15:30.625Z,10.33
2023-01-24T07:17:58.282Z,12.27
2023-01-24T07:20:25.705Z,10.23
2023-01-24T07:22:54.211Z,10.53
2023-01-24T07:25:22.571Z,10.83
2023-01-24T07:27:50.529Z,10.43
2023-01-24T07:30:18.090Z,10.90
2023-01-24T07:32:45.443Z,10.97
2023-01-24T07:35:12.984Z,10.20
2023-01-24T07:37:40.290Z,10.93
2023-01-24T07:40:08.127Z,11.43
2023-01-24T07:42:35.796Z,10.83
2023-01-24T07:45:05.604Z,10.93
2023-01-24T07:47:32.882Z,10.90
2023-01-24T07:50:00.262Z,10.90
2023-01-24T07:52:27.548Z,11.13
2023-01-24T07:54:54.619Z,9.80
2023-01-24T07:57:21.865Z,10.93
2023-01-24T07:59:48.955Z,11.63
2023-01-24T08:02:16.116Z,11.20
2023-01-24T08:04:43.299Z,10.57
2023-01-24T08:07:19.337Z,10.50
2023-01-24T08:09:48.035Z,10.93
2023-01-24T08:12:16.242Z,11.20
2023-01-24T08:14:43.422Z,10.70
2023-01-24T08:17:11.476Z,10.17
2023-01-24T08:19:55.389Z,11.23
2023-01-24T08:22:23.825Z,10.20
2023-01-24T08:24:51.041Z,10.50
2023-01-24T08:27:18.142Z,10.40
2023-01-24T08:29:45.274Z,11.43
2023-01-24T08:32:15.353Z,11.17
2023-01-24T08:34:42.540Z,10.40
2023-01-24T08:37:09.709Z,10.77
2023-01-24T08:39:36.868Z,10.20
2023-01-24T08:42:04.134Z,10.43
2023-01-24T08:44:31.267Z,10.97
2023-01-24T08:46:58.660Z,10.53
2023-01-24T08:49:25.960Z,10.00
2023-01-24T08:51:59.780Z,10.50
2023-01-24T08:54:33.537Z,10.40
2023-01-24T08:57:00.658Z,12.57
2023-01-24T08:59:27.827Z,11.73
2023-01-24T09:01:54.975Z,10.87
2023-01-24T09:04:22.351Z,10.57
2023-01-24T09:06:52.031Z,12.27
2023-01-24T09:09:19.280Z,10.13
2023-01-24T09:11:46.722Z,10.50
2023-01-24T09:14:13.807Z,11.33
2023-01-24T09:16:41.017Z,10.93
2023-01-24T09:19:09.143Z,10.53
2023-01-24T09:21:36.404Z,11.10
2023-01-24T09:24:03.875Z,10.73
2023-01-24T09:26:31.127Z,10.33
2023-01-24T09:28:58.263Z,11.47
2023-01-24T09:31:25.563Z,11.43
2023-01-24T09:33:59.385Z,10.50
2023-01-24T09:36:28.839Z,11.13
2023-01-24T09:39:05.380Z,10.90
2023-01-24T09:42:10.492Z,11.13
2023-01-24T09:44:43.961Z,10.53
2023-01-24T09:47:26.327Z,10.70
2023-01-24T09:50:00.014Z,10.77
2023-01-24T09:52:41.630Z,10.73
2023-01-24T09:55:28.170Z,10.93
2023-01-24T09:58:29.912Z,10.33
2023-01-24T10:01:00.444Z,10.53
2023-01-24T10:03:28.528Z,10.40
2023-01-24T10:05:59.910Z,10.33
2023-01-24T10:08:55.819Z,11.27
2023-01-24T10:11:40.828Z,9.97
2023-01-24T10:14:32.842Z,12.00
2023-01-24T10:17:20.548Z,16.77
2023-01-24T10:20:07.038Z,11.13
2023-01-24T10:23:22.372Z,10.40
2023-01-24T10:25:56.323Z,11.20
2023-01-24T10:28:36.507Z,10.70
2023-01-24T10:31:18.090Z,10.83
2023-01-24T10:33:53.389Z,11.23
2023-01-24T10:36:44.099Z,10.50
2023-01-24T10:39:12.650Z,11.07
2023-01-24T10:41:40.534Z,10.47
2023-01-24T10:44:28.370Z,10.93
2023-01-24T10:47:42.014Z,11.07
2023-01-24T10:50:13.548Z,10.07
2023-01-24T10:52:40.721Z,11.50
2023-01-24T10:55:39.370Z,10.87
2023-01-24T10:58:28.314Z,10.90
2023-01-24T11:01:20.309Z,10.67
2023-01-24T11:03:50.997Z,10.33
2023-01-24T11:06:38.755Z,12.47
2023-01-24T11:09:13.907Z,10.30
2023-01-24T11:11:56.710Z,10.67
2023-01-24T11:14:27.974Z,10.80
2023-01-24T11:16:59.185Z,11.00
2023-01-24T11:19:39.484Z,9.70
2023-01-24T11:22:24.641Z,9.77
2023-01-24T11:24:58.853Z,9.97
2023-01-24T11:27:27.687Z,10.27
2023-01-24T11:30:16.607Z,9.90
2023-01-24T11:33:14.603Z,10.23
2023-01-24T11:35:49.668Z,10.57
2023-01-24T11:38:25.308Z,10.57
2023-01-24T11:41:09.983Z,10.03
2023-01-24T11:44:24.075Z,11.10
2023-01-24T11:47:21.393Z,11.00
2023-01-24T11:50:07.355Z,10.77
2023-01-24T11:53:09.311Z,10.17
2023-01-24T11:56:13.522Z,9.93
2023-01-24T11:59:17.658Z,10.50
2023-01-24T12:02:11.045Z,10.93
2023-01-24T12:05:16.531Z,10.07
2023-01-24T12:08:23.340Z,11.10
2023-01-24T12:11:29.638Z,11.07
2023-01-24T12:14:44.616Z,9.53
2023-01-24T12:17:33.390Z,10.20
2023-01-24T12:20:59.958Z,9.07
2023-01-24T12:23:48.858Z,11.17
2023-01-24T12:26:23.909Z,11.57
2023-01-24T12:29:15.137Z,10.37
2023-01-24T12:32:13.192Z,10.73
2023-01-24T12:35:36.726Z,10.87
2023-01-24T12:38:12.487Z,10.63
2023-01-24T12:40:48.000Z,10.57
2023-01-24T12:43:57.483Z,11.07
2023-01-24T12:46:55.851Z,10.53
2023-01-24T12:49:53.607Z,10.90
2023-01-24T12:52:40.303Z,10.10
2023-01-24T12:55:16.631Z,11.17
2023-01-24T12:57:54.988Z,11.37
2023-01-24T13:00:25.548Z,10.23
2023-01-24T13:03:38.289Z,9.50
2023-01-24T13:06:28.027Z,10.07
2023-01-24T13:09:30.403Z,9.03
2023-01-24T13:12:00.326Z,10.90
2023-01-24T13:14:55.066Z,9.17
2023-01-24T13:17:44.144Z,8.70
2023-01-24T13:20:30.325Z,9.30
2023-01-24T13:23:38.495Z,9.03
2023-01-24T13:26:52.101Z,9.80
2023-01-24T13:30:15.457Z,9.23
2023-01-24T13:32:44.571Z,11.20
2023-01-24T13:35:18.866Z,10.70
2023-01-24T13:38:25.077Z,10.67
2023-01-24T13:41:06.775Z,9.67
2023-01-24T13:43:37.427Z,10.43
2023-01-24T13:46:05.418Z,10.23
2023-01-24T13:48:42.535Z,10.80
2023-01-24T13:51:22.125Z,11.17
2023-01-24T13:54:07.251Z,10.07
2023-01-24T13:57:19.694Z,11.57
2023-01-24T13:59:59.603Z,10.73
2023-01-24T14:02:57.347Z,10.30
2023-01-24T14:05:31.349Z,9.87
2023-01-24T14:08:25.438Z,10.33
2023-01-24T14:11:16.968Z,10.37
2023-01-24T14:13:56.460Z,10.33
2023-01-24T14:16:34.011Z,11.53
2023-01-24T14:19:16.520Z,10.80
2023-01-24T14:22:09.383Z,11.20
2023-01-24T14:24:55.398Z,10.37
2023-01-24T14:27:37.887Z,10.27
2023-01-24T14:30:15.544Z,9.83
2023-01-24T14:32:53.037Z,10.37
2023-01-24T14:35:28.967Z,11.17
2023-01-24T14:38:16.973Z,11.37
2023-01-24T14:40:53.810Z,10.87
2023-01-24T14:43:25.318Z,11.17
2023-01-24T14:45:53.025Z,11.43
2023-01-24T14:48:26.025Z,11.83
2023-01-24T14:51:08.126Z,11.77
2023-01-24T14:53:36.161Z,10.27
2023-01-24T14:56:13.283Z,11.70
2023-01-24T14:58:41.090Z,10.67
2023-01-24T15:01:32.226Z,10.97
2023-01-24T15:04:00.631Z,10.60
2023-01-24T15:06:29.509Z,10.57
2023-01-24T15:09:00.574Z,10.50
2023-01-24T15:11:38.945Z,24.90
2023-01-24T15:14:19.518Z,10.23
2023-01-24T15:16:55.373Z,10.73
2023-01-24T15:19:26.321Z,10.27
2023-01-24T15:21:55.707Z,9.97
2023-01-24T15:24:30.261Z,10.57
2023-01-24T15:27:00.130Z,11.37
2023-01-24T15:29:50.641Z,10.23
2023-01-24T15:32:23.837Z,10.20
2023-01-24T15:34:51.491Z,10.03
2023-01-24T15:37:18.843Z,10.60
2023-01-24T15:39:46.265Z,10.63
2023-01-24T15:42:37.838Z,10.77
2023-01-24T15:45:06.030Z,11.40
2023-01-24T15:47:45.409Z,10.13
2023-01-24T15:50:37.762Z,10.13
2023-01-24T15:53:31.860Z,11.33
2023-01-24T15:56:05.958Z,10.63
2023-01-24T15:58:35.239Z,10.57
2023-01-24T16:01:04.368Z,10.30
2023-01-24T16:03:32.204Z,11.23
2023-01-24T16:06:00.034Z,11.73
2023-01-24T16:08:28.979Z,9.50
2023-01-24T16:10:58.424Z,11.40
2023-01-24T16:13:32.372Z,11.63
2023-01-24T16:16:04.423Z,11.13
2023-01-24T16:18:31.931Z,9.60
2023-01-24T16:21:00.369Z,11.20
2023-01-24T16:23:27.884Z,10.77
2023-01-24T16:25:57.587Z,10.17
2023-01-24T16:28:28.630Z,9.53
2023-01-24T16:31:03.218Z,9.93
2023-01-24T16:33:30.671Z,10.50
2023-01-24T16:35:58.863Z,10.73
2023-01-24T16:38:26.446Z,10.53
2023-01-24T16:40:54.077Z,9.90
2023-01-24T16:43:23.580Z,10.63
2023-01-24T16:45:52.730Z,10.10
2023-01-24T16:48:20.240Z,9.63
2023-01-24T16:50:47.728Z,11.00
2023-01-24T16:53:16.013Z,10.03
2023-01-24T16:55:43.786Z,10.97
2023-01-24T16:58:13.568Z,10.37
2023-01-24T17:00:41.093Z,11.00
2023-01-24T17:03:08.694Z,11.90
2023-01-24T17:05:40.193Z,11.53
2023-01-24T17:08:10.957Z,11.87
2023-01-24T17:10:38.658Z,12.07
2023-01-24T17:13:07.271Z,12.20
2023-01-24T17:15:39.047Z,12.87
2023-01-24T17:18:07.234Z,11.43
2023-01-24T17:20:35.720Z,11.30
2023-01-24T17:23:03.056Z,10.63
2023-01-24T17:25:31.917Z,11.03
2023-01-24T17:27:59.473Z,11.30
2023-01-24T17:30:27.271Z,12.63
2023-01-24T17:32:54.612Z,11.47
2023-01-24T17:35:21.886Z,11.57
2023-01-24T17:37:49.446Z,11.43
2023-01-24T17:40:17.193Z,12.33
2023-01-24T17:42:45.105Z,12.20
2023-01-24T17:45:14.172Z,10.77
2023-01-24T17:47:41.519Z,11.13
2023-01-24T17:50:09.490Z,12.43
2023-01-24T17:52:36.785Z,13.33
2023-01-24T17:55:04.708Z,14.10
2023-01-24T17:57:32.299Z,11.80
2023-01-24T17:59:59.615Z,12.43
2023-01-24T18:02:26.860Z,12.33
2023-01-24T18:04:55.056Z,12.70
2023-01-24T18:07:22.401Z,10.80
2023-01-24T18:09:49.644Z,11.10
2023-01-24T18:12:17.016Z,10.83
2023-01-24T18:14:44.389Z,11.23
2023-01-24T18:17:11.723Z,11.93
2023-01-24T18:19:39.042Z,11.73
2023-01-24T18:22:06.311Z,11.17
2023-01-24T18:24:33.682Z,11.27
2023-01-24T18:27:01.171Z,11.40
2023-01-24T18:29:28.380Z,11.93
2023-01-24T18:31:55.896Z,11.57
2023-01-24T18:34:25.053Z,11.40
2023-01-24T18:36:52.489Z,12.33
2023-01-24T18:39:20.063Z,12.23
2023-01-24T18:41:47.434Z,12.03
2023-01-24T18:44:16.406Z,12.43
2023-01-24T18:46:43.729Z,12.67
2023-01-24T18:49:11.651Z,12.10
2023-01-24T18:51:39.799Z,13.10
2023-01-24T18:54:08.883Z,20.97
2023-01-24T18:56:37.504Z,11.37
2023-01-24T18:59:04.841Z,12.73
2023-01-24T19:01:33.991Z,11.77
2023-01-24T19:04:01.720Z,11.77
2023-01-24T19:06:35.774Z,12.27
2023-01-24T19:09:08.411Z,11.83
2023-01-24T19:11:39.020Z,11.40
2023-01-24T19:14:08.103Z,11.17
2023-01-24T19:16:43.302Z,11.77
2023-01-24T19:19:15.492Z,11.87
2023-01-24T19:21:43.514Z,10.90
2023-01-24T19:24:11.178Z,12.37
2023-01-24T19:26:38.665Z,12.20
2023-01-24T19:29:06.577Z,12.63
2023-01-24T19:31:36.332Z,11.73
2023-01-24T19:34:07.505Z,11.07
2023-01-24T19:36:34.906Z,10.57
2023-01-24T19:39:02.734Z,11.73
2023-01-24T19:41:30.461Z,11.57
2023-01-24T19:44:19.191Z,12.27
2023-01-24T19:46:48.583Z,16.73
2023-01-24T19:49:17.557Z,10.37
2023-01-24T19:51:45.092Z,11.13
2023-01-24T19:54:12.721Z,11.47
2023-01-24T19:56:40.377Z,11.37
2023-01-24T19:59:07.943Z,11.63
2023-01-24T20:01:35.678Z,11.07
2023-01-24T20:04:22.259Z,11.97
2023-01-24T20:06:51.405Z,10.47
2023-01-24T20:09:19.596Z,10.63
2023-01-24T20:11:47.116Z,11.93
2023-01-24T20:14:14.576Z,11.27
2023-01-24T20:16:42.073Z,12.83
2023-01-24T20:19:18.534Z,12.23
2023-01-24T20:21:54.047Z,13.67
2023-01-24T20:24:21.596Z,12.17
2023-01-24T20:26:53.157Z,12.40
2023-01-24T20:29:20.826Z,13.67
2023-01-24T20:31:48.206Z,11.33
2023-01-24T20:34:17.675Z,11.50
2023-01-24T20:36:47.369Z,11.80
2023-01-24T20:39:15.198Z,12.93
2023-01-24T20:41:45.063Z,11.73
2023-01-24T20:44:25.757Z,12.13
2023-01-24T20:46:55.531Z,11.37
2023-01-24T20:49:24.234Z,11.13
2023-01-24T20:51:51.645Z,11.30
2023-01-24T20:54:19.288Z,12.17
2023-01-24T20:56:47.633Z,12.03
2023-01-24T20:59:15.830Z,11.07
2023-01-24T21:01:43.344Z,12.17
2023-01-24T21:04:10.829Z,12.07
2023-01-24T21:06:41.423Z,12.00
2023-01-24T21:09:10.823Z,11.83
2023-01-24T21:11:38.726Z,12.53
2023-01-24T21:14:10.642Z,11.53
2023-01-24T21:16:38.050Z,12.60
2023-01-24T21:19:07.963Z,11.50
2023-01-24T21:21:37.197Z,12.30
2023-01-24T21:24:20.043Z,11.33
2023-01-24T21:26:57.735Z,12.10
2023-01-24T21:29:30.336Z,12.27
2023-01-24T21:32:01.093Z,11.83
2023-01-24T21:34:28.923Z,11.77
2023-01-24T21:36:56.802Z,12.30
2023-01-24T21:39:26.420Z,11.53
2023-01-24T21:41:57.244Z,11.63
2023-01-24T21:44:34.056Z,11.67
2023-01-24T21:47:04.131Z,11.97
2023-01-24T21:49:31.607Z,11.93
2023-01-24T21:52:01.407Z,12.67
2023-01-24T21:54:34.548Z,11.00
2023-01-24T21:57:31.422Z,12.60
2023-01-24T22:00:06.388Z,12.80
2023-01-24T22:02:40.135Z,11.37
2023-01-24T22:05:08.400Z,12.33
2023-01-24T22:07:37.937Z,11.73
2023-01-24T22:10:07.606Z,12.87
2023-01-24T22:12:36.523Z,12.20
2023-01-24T22:15:05.020Z,12.27
2023-01-24T22:17:34.088Z,11.43
2023-01-24T22:20:01.891Z,11.93
2023-01-24T22:22:56.478Z,13.10
2023-01-24T22:25:45.107Z,13.00
2023-01-24T22:28:20.607Z,13.03
2023-01-24T22:30:49.222Z,12.57
2023-01-24T22:33:17.554Z,12.77
2023-01-24T22:35:47.717Z,12.90
2023-01-24T22:38:15.328Z,12.90
2023-01-24T22:40:42.984Z,11.70
2023-01-24T22:43:10.575Z,11.73
2023-01-24T22:45:38.237Z,11.80
2023-01-24T22:48:16.060Z,13.87
2023-01-24T22:50:44.729Z,13.37
2023-01-24T22:53:13.125Z,12.33
2023-01-24T22:55:41.557Z,12.30
2023-01-24T22:58:08.910Z,13.43
2023-01-24T23:00:39.085Z,12.10
2023-01-24T23:03:06.489Z,13.07
2023-01-24T23:05:33.863Z,12.53
2023-01-24T23:08:01.335Z,13.73
2023-01-24T23:10:28.688Z,13.70
2023-01-24T23:13:15.030Z,12.87
2023-01-24T23:16:00.827Z,13.13
2023-01-24T23:18:47.813Z,13.87
2023-01-24T23:21:33.716Z,13.77
2023-01-24T23:24:01.761Z,12.67
2023-01-24T23:26:30.465Z,14.17
2023-01-24T23:29:12.374Z,15.23
2023-01-24T23:31:40.753Z,14.37
2023-01-24T23:34:31.420Z,13.60
2023-01-24T23:36:58.667Z,14.53
2023-01-24T23:39:26.032Z,14.67
2023-01-24T23:41:53.387Z,14.57
2023-01-24T23:44:22.787Z,14.60
2023-01-24T23:46:50.333Z,14.60
2023-01-24T23:49:17.757Z,14.83
2023-01-24T23:51:45.518Z,15.00
2023-01-24T23:54:13.318Z,14.63
2023-01-24T23:56:41.117Z,13.80
2023-01-24T23:59:08.668Z,14.30
